Time;durP1;ratioP1;P1;durP2;ratioP2;P2;SDS_P1;SDS_P2;PMS_P1;PMS_P2;Temp;Humidity;BMP_temperature;BMP_pressure;BME280_temperature;BME280_humidity;BME280_pressure;Samples;Min_cycle;Max_cycle;Signal;HPM_P1;HPM_P2
2022/01/03 00:02:26;;;;;;;7.65;4.45;;;10.40;99.90;;;;;;5075010;28;20251;-67
2022/01/03 00:04:53;;;;;;;6.97;3.97;;;10.40;99.90;;;;;;5066993;28;20204;-67
2022/01/03 00:07:20;;;;;;;10.05;4.22;;;10.50;99.90;;;;;;5066502;28;20311;-66
2022/01/03 00:09:47;;;;;;;5.43;4.13;;;10.40;99.90;;;;;;5065948;28;20610;-66
2022/01/03 00:12:14;;;;;;;6.32;3.55;;;10.40;99.90;;;;;;5066720;28;20288;-66
2022/01/03 00:14:44;;;;;;;6.88;2.85;;;10.30;99.90;;;;;;5066938;28;20180;-66
2022/01/03 00:17:18;;;;;;;4.28;2.30;;;10.30;99.90;;;;;;5066811;28;20255;-67
2022/01/03 00:19:58;;;;;;;3.40;2.03;;;10.30;99.90;;;;;;5065898;28;20177;-67
2022/01/03 00:22:27;;;;;;;0.90;0.80;;;10.20;99.90;;;;;;5065620;28;20274;-67
2022/01/03 00:25:02;;;;;;;1.45;0.70;;;10.10;99.90;;;;;;5066738;28;20203;-68
2022/01/03 00:27:36;;;;;;;1.75;0.80;;;10.00;99.90;;;;;;5066486;28;20179;-67
2022/01/03 00:30:05;;;;;;;0.77;0.50;;;10.00;99.90;;;;;;5064781;28;20191;-68
2022/01/03 00:32:34;;;;;;;1.20;0.50;;;9.90;99.90;;;;;;5066581;28;20330;-66
2022/01/03 00:35:02;;;;;;;0.90;0.70;;;9.90;99.90;;;;;;5066476;28;20275;-66
2022/01/03 00:37:29;;;;;;;1.98;0.73;;;9.90;99.90;;;;;;5066215;28;20212;-68
2022/01/03 00:39:57;;;;;;;2.88;0.82;;;9.70;99.90;;;;;;5065611;28;20199;-67
2022/01/03 00:42:24;;;;;;;2.90;0.70;;;9.70;99.90;;;;;;5065904;28;20282;-66
2022/01/03 00:44:53;;;;;;;1.38;0.90;;;9.60;99.90;;;;;;5066628;28;20226;-68
2022/01/03 00:47:22;;;;;;;1.98;0.77;;;9.50;99.90;;;;;;5063622;28;20410;-68
2022/01/03 00:49:49;;;;;;;1.80;0.70;;;9.40;99.90;;;;;;5065648;28;20196;-67
2022/01/03 00:52:16;;;;;;;3.10;0.57;;;9.40;99.90;;;;;;5066153;28;20214;-68
2022/01/03 00:54:43;;;;;;;1.75;0.80;;;9.40;99.90;;;;;;5066716;28;20227;-67
2022/01/03 00:57:20;;;;;;;3.10;0.73;;;9.40;99.90;;;;;;5072290;28;20247;-67
2022/01/03 00:59:53;;;;;;;1.80;0.63;;;9.30;99.90;;;;;;5062762;28;20304;-68
2022/01/03 01:02:22;;;;;;;3.08;0.80;;;9.30;99.90;;;;;;5069910;28;20208;-66
2022/01/03 01:04:50;;;;;;;2.10;0.90;;;9.20;99.90;;;;;;5069473;28;20188;-67
2022/01/03 01:07:18;;;;;;;4.63;0.90;;;9.20;99.90;;;;;;5069745;28;20270;-67
2022/01/03 01:09:51;;;;;;;1.75;0.82;;;9.20;99.90;;;;;;5068732;28;20388;-68
2022/01/03 01:12:19;;;;;;;1.83;1.13;;;9.20;99.90;;;;;;5068504;28;20249;-69
2022/01/03 01:14:50;;;;;;;6.90;1.13;;;9.20;99.90;;;;;;5069450;28;20257;-69
2022/01/03 01:17:17;;;;;;;4.63;1.10;;;9.10;99.90;;;;;;5069833;28;20184;-68
2022/01/03 01:19:45;;;;;;;3.25;1.55;;;9.10;99.90;;;;;;5068742;28;20183;-68
2022/01/03 01:22:13;;;;;;;5.07;1.35;;;9.10;99.90;;;;;;5069625;28;20208;-68
2022/01/03 01:24:49;;;;;;;2.30;0.75;;;9.10;99.90;;;;;;5069484;28;20233;-67
2022/01/03 01:30:00;;;;;;;3.65;2.40;;;9.10;99.90;;;;;;5068126;28;20203;-67
2022/01/03 01:32:29;;;;;;;2.08;0.80;;;9.00;99.90;;;;;;5068895;28;20312;-67
2022/01/03 01:35:02;;;;;;;4.25;1.10;;;9.10;99.90;;;;;;5069083;28;20461;-67
2022/01/03 01:37:29;;;;;;;8.13;1.65;;;9.10;99.90;;;;;;5073533;28;20191;-67
2022/01/03 01:39:58;;;;;;;4.53;0.95;;;9.10;99.90;;;;;;5069203;28;20256;-68
2022/01/03 01:42:28;;;;;;;1.17;1.00;;;9.10;99.90;;;;;;5067757;28;20553;-68
2022/01/03 01:44:58;;;;;;;7.40;0.77;;;9.10;99.90;;;;;;5068507;28;20204;-67
2022/01/03 01:47:31;;;;;;;1.48;1.10;;;9.10;99.90;;;;;;5068706;28;20188;-67
2022/01/03 01:50:04;;;;;;;2.70;0.88;;;9.10;99.90;;;;;;5068449;28;20203;-68
2022/01/03 01:52:36;;;;;;;5.40;1.10;;;9.10;99.90;;;;;;5067849;28;20250;-68
2022/01/03 01:55:06;;;;;;;1.45;1.05;;;9.10;99.90;;;;;;5071512;28;20254;-68
2022/01/03 01:57:48;;;;;;;2.80;1.35;;;9.00;99.90;;;;;;5071529;28;20445;-68
2022/01/03 02:00:16;;;;;;;3.28;1.42;;;9.00;99.90;;;;;;5067948;28;20184;-68
2022/01/03 02:02:51;;;;;;;1.80;0.95;;;9.10;99.90;;;;;;5060589;28;20379;-69
2022/01/03 02:05:29;;;;;;;3.13;1.30;;;9.10;99.90;;;;;;5068476;28;20183;-68
2022/01/03 02:08:13;;;;;;;1.92;1.63;;;9.10;99.90;;;;;;5068082;28;20191;-68
2022/01/03 02:10:42;;;;;;;3.90;1.40;;;9.20;99.90;;;;;;5067128;28;20323;-68
2022/01/03 02:13:10;;;;;;;4.75;1.88;;;9.20;99.90;;;;;;5068426;28;20230;-68
2022/01/03 02:15:44;;;;;;;6.88;2.15;;;9.30;99.90;;;;;;5068312;28;20191;-68
2022/01/03 02:18:14;;;;;;;4.07;2.20;;;9.30;99.90;;;;;;5067387;28;20412;-68
2022/01/03 02:20:42;;;;;;;5.07;2.00;;;9.30;99.90;;;;;;5067459;28;20210;-68
2022/01/03 02:23:09;;;;;;;8.82;2.33;;;9.30;99.90;;;;;;5068388;28;20369;-69
2022/01/03 02:25:36;;;;;;;7.70;3.05;;;9.40;99.90;;;;;;5068101;28;20227;-67
2022/01/03 02:28:04;;;;;;;4.78;2.03;;;9.40;99.90;;;;;;5068071;28;20215;-68
2022/01/03 02:30:33;;;;;;;7.70;2.20;;;9.50;99.90;;;;;;5067303;28;20437;-68
2022/01/03 02:33:00;;;;;;;10.50;3.20;;;9.50;99.90;;;;;;5068332;28;20248;-68
2022/01/03 02:35:27;;;;;;;5.05;2.40;;;9.50;99.90;;;;;;5067977;28;20246;-69
2022/01/03 02:37:56;;;;;;;6.40;1.75;;;9.60;99.90;;;;;;5068057;28;20219;-68
2022/01/03 02:40:23;;;;;;;11.32;3.25;;;9.60;99.90;;;;;;5067563;28;20183;-68
2022/01/03 02:42:50;;;;;;;6.70;2.42;;;9.70;99.90;;;;;;5067720;28;20187;-68
2022/01/03 02:45:20;;;;;;;14.07;3.63;;;9.70;99.90;;;;;;5068170;28;20353;-68
2022/01/03 02:47:50;;;;;;;10.02;2.90;;;9.70;99.90;;;;;;5060348;28;20262;-67
2022/01/03 02:50:19;;;;;;;9.73;3.20;;;9.70;99.90;;;;;;5066863;28;20261;-67
2022/01/03 02:52:46;;;;;;;6.90;3.33;;;9.80;99.90;;;;;;5067915;28;20314;-67
2022/01/03 02:55:15;;;;;;;11.60;3.90;;;9.80;99.90;;;;;;5067637;28;20308;-67
2022/01/03 02:57:45;;;;;;;8.25;2.53;;;9.90;99.90;;;;;;5057081;28;20187;-68
2022/01/03 03:00:14;;;;;;;9.63;2.40;;;9.90;99.90;;;;;;5066924;28;20204;-68
2022/01/03 03:02:41;;;;;;;11.18;3.28;;;9.90;99.90;;;;;;5059366;28;20187;-67
2022/01/03 03:05:11;;;;;;;12.23;3.58;;;10.00;99.90;;;;;;5067661;28;20183;-67
2022/01/03 03:07:39;;;;;;;6.43;2.90;;;10.00;99.90;;;;;;5067598;28;20219;-67
2022/01/03 03:10:07;;;;;;;6.15;2.95;;;10.00;99.90;;;;;;5066741;28;20213;-68
2022/01/03 03:12:37;;;;;;;13.90;3.40;;;10.00;99.90;;;;;;5067208;28;20305;-67
2022/01/03 03:15:06;;;;;;;12.48;3.50;;;10.00;99.90;;;;;;5074949;28;20367;-68
2022/01/03 03:17:33;;;;;;;11.82;3.65;;;10.00;99.90;;;;;;5066620;28;20223;-68
2022/01/03 03:20:04;;;;;;;13.35;3.60;;;10.10;99.90;;;;;;5061636;28;20391;-68
2022/01/03 03:22:31;;;;;;;12.80;4.30;;;10.00;99.90;;;;;;5067197;28;20200;-67
2022/01/03 03:25:05;;;;;;;14.40;3.60;;;10.10;99.90;;;;;;5067045;28;20203;-67
2022/01/03 03:27:32;;;;;;;8.85;3.65;;;10.10;99.90;;;;;;5067113;28;20242;-68
2022/01/03 03:30:00;;;;;;;13.02;3.38;;;10.20;99.90;;;;;;5066485;28;20223;-68
2022/01/03 03:32:28;;;;;;;16.10;5.43;;;10.20;99.90;;;;;;5067368;28;20286;-68
2022/01/03 03:34:55;;;;;;;23.15;3.90;;;10.30;99.90;;;;;;5066654;28;20227;-68
2022/01/03 03:37:23;;;;;;;10.98;3.78;;;10.20;99.90;;;;;;5066953;28;20184;-67
2022/01/03 03:39:50;;;;;;;11.00;3.75;;;10.20;99.90;;;;;;5066287;28;20196;-67
2022/01/03 03:42:17;;;;;;;17.38;3.70;;;10.20;99.90;;;;;;5066829;28;20209;-67
2022/01/03 03:44:45;;;;;;;16.00;3.97;;;10.20;99.90;;;;;;5066893;28;20189;-67
2022/01/03 03:47:14;;;;;;;17.75;5.40;;;10.20;99.90;;;;;;5067214;28;20198;-68
2022/01/03 03:49:42;;;;;;;15.05;4.55;;;10.30;99.90;;;;;;5066062;28;20226;-67
2022/01/03 03:52:09;;;;;;;11.88;3.85;;;10.20;99.90;;;;;;5066373;28;20199;-67
2022/01/03 03:54:37;;;;;;;19.08;3.95;;;10.20;99.90;;;;;;5064904;28;20192;-68
2022/01/03 03:57:08;;;;;;;13.73;3.47;;;10.20;99.90;;;;;;5062767;28;20191;-67
2022/01/03 03:59:35;;;;;;;15.60;4.55;;;10.20;99.90;;;;;;5066259;28;20177;-67
2022/01/03 04:02:02;;;;;;;9.27;2.85;;;10.20;99.90;;;;;;5066599;28;20203;-68
2022/01/03 04:04:30;;;;;;;12.05;4.10;;;10.20;99.90;;;;;;5066697;28;20225;-67
2022/01/03 04:06:57;;;;;;;10.70;5.43;;;10.20;99.90;;;;;;5060676;28;20254;-68
2022/01/03 04:09:24;;;;;;;17.67;4.82;;;10.30;99.90;;;;;;5066126;28;20217;-68
2022/01/03 04:11:51;;;;;;;11.60;4.22;;;10.30;99.90;;;;;;5066366;28;20224;-68
2022/01/03 04:14:18;;;;;;;13.30;3.60;;;10.20;99.90;;;;;;5066574;28;20419;-68
2022/01/03 04:16:46;;;;;;;11.02;4.78;;;10.30;99.90;;;;;;5066689;28;20224;-68
2022/01/03 04:19:13;;;;;;;15.73;3.20;;;10.30;99.90;;;;;;5066636;28;20180;-67
2022/01/03 04:21:41;;;;;;;8.60;3.30;;;10.30;99.90;;;;;;5066132;28;20238;-68
2022/01/03 04:24:12;;;;;;;8.18;3.63;;;10.40;99.90;;;;;;5066750;28;20232;-67
2022/01/03 04:26:40;;;;;;;10.38;5.00;;;10.30;99.90;;;;;;5066263;28;20256;-67
2022/01/03 04:29:07;;;;;;;12.93;3.17;;;10.30;99.90;;;;;;5067291;28;20227;-68
2022/01/03 04:31:34;;;;;;;11.55;3.38;;;10.30;99.90;;;;;;5069521;28;20427;-67
2022/01/03 04:34:01;;;;;;;17.55;3.50;;;10.30;99.90;;;;;;5070197;28;20189;-68
2022/01/03 04:36:28;;;;;;;21.63;4.28;;;10.30;99.90;;;;;;5070225;28;20434;-67
2022/01/03 04:38:56;;;;;;;19.38;4.82;;;10.30;99.90;;;;;;5070362;28;20221;-67
2022/01/03 04:41:23;;;;;;;11.80;3.95;;;10.30;99.90;;;;;;5069731;28;20307;-67
2022/01/03 04:43:50;;;;;;;13.85;3.92;;;10.30;99.90;;;;;;5070276;28;20219;-67
2022/01/03 04:46:17;;;;;;;23.02;5.07;;;10.20;99.90;;;;;;5077877;28;20217;-67
2022/01/03 04:48:44;;;;;;;13.82;4.65;;;10.20;99.90;;;;;;5070161;28;20213;-67
2022/01/03 04:51:12;;;;;;;12.45;3.40;;;10.20;99.90;;;;;;5075693;28;20240;-67
2022/01/03 04:53:40;;;;;;;10.15;3.22;;;10.20;99.90;;;;;;5069723;28;20298;-67
2022/01/03 04:56:10;;;;;;;18.48;4.20;;;10.20;99.90;;;;;;5070261;28;20248;-68
2022/01/03 04:58:37;;;;;;;16.75;4.22;;;10.20;99.90;;;;;;5069879;28;20352;-67
2022/01/03 05:01:05;;;;;;;13.43;3.40;;;10.20;99.90;;;;;;5069137;28;20205;-67
2022/01/03 05:03:32;;;;;;;16.50;3.83;;;10.20;99.90;;;;;;5078247;28;20200;-68
2022/01/03 05:06:01;;;;;;;11.55;3.83;;;10.20;99.90;;;;;;5071207;28;20218;-67
2022/01/03 05:08:28;;;;;;;14.35;2.75;;;10.20;99.90;;;;;;5068085;28;20188;-68
2022/01/03 05:10:55;;;;;;;11.85;4.45;;;10.20;99.90;;;;;;5069222;28;20291;-68
2022/01/03 05:13:23;;;;;;;11.52;5.10;;;10.20;99.90;;;;;;5069622;28;20185;-67
2022/01/03 05:15:50;;;;;;;11.65;3.67;;;10.20;99.90;;;;;;5069853;28;20184;-67
2022/01/03 05:18:17;;;;;;;11.52;3.75;;;10.20;99.90;;;;;;5069471;28;20317;-68
2022/01/03 05:20:44;;;;;;;13.45;4.95;;;10.30;99.90;;;;;;5068762;28;20380;-67
2022/01/03 05:23:11;;;;;;;16.50;4.10;;;10.30;99.90;;;;;;5069470;28;20233;-67
2022/01/03 05:25:37;;;;;;;16.02;4.22;;;10.30;99.90;;;;;;5069530;28;20188;-68
2022/01/03 05:28:05;;;;;;;19.08;4.65;;;10.30;99.90;;;;;;5069164;28;20396;-67
2022/01/03 05:30:33;;;;;;;14.73;4.00;;;10.20;99.90;;;;;;5068236;28;20323;-67
2022/01/03 05:33:00;;;;;;;13.40;5.15;;;10.20;99.90;;;;;;5069413;28;20180;-67
2022/01/03 05:35:28;;;;;;;13.13;3.67;;;10.20;99.90;;;;;;5069085;28;20226;-67
2022/01/03 05:37:54;;;;;;;20.48;4.30;;;10.20;99.90;;;;;;5069345;28;20180;-67
2022/01/03 05:40:23;;;;;;;16.30;4.00;;;10.30;99.90;;;;;;5067700;28;20184;-67
2022/01/03 05:42:50;;;;;;;12.07;5.40;;;10.30;99.90;;;;;;5068563;28;20180;-67
2022/01/03 05:45:17;;;;;;;23.30;6.25;;;10.30;99.90;;;;;;5068671;28;20224;-66
2022/01/03 05:47:47;;;;;;;13.68;4.40;;;10.20;99.90;;;;;;5068693;28;20433;-65
2022/01/03 05:50:14;;;;;;;20.60;5.50;;;10.20;99.90;;;;;;5067776;28;20497;-66
2022/01/03 05:52:41;;;;;;;21.48;4.88;;;10.10;99.90;;;;;;5060655;28;20402;-66
2022/01/03 05:55:10;;;;;;;21.35;3.10;;;10.00;99.90;;;;;;5068855;28;20179;-66
2022/01/03 05:57:39;;;;;;;16.08;4.30;;;10.00;99.90;;;;;;5071178;28;20212;-66
2022/01/03 06:00:08;;;;;;;28.92;5.15;;;10.00;99.90;;;;;;5071025;28;20184;-65
2022/01/03 06:02:40;;;;;;;19.75;4.95;;;10.00;99.90;;;;;;5067854;28;20214;-66
2022/01/03 06:05:16;;;;;;;15.82;4.20;;;9.90;99.90;;;;;;5068267;28;20279;-66
2022/01/03 06:07:43;;;;;;;12.20;4.82;;;9.90;99.90;;;;;;5065157;28;20191;-67
2022/01/03 06:10:15;;;;;;;23.33;7.15;;;9.80;99.90;;;;;;5067560;28;20291;-67
2022/01/03 06:12:42;;;;;;;21.92;5.10;;;9.80;99.90;;;;;;5063693;28;20188;-66
2022/01/03 06:15:09;;;;;;;15.98;4.70;;;9.80;99.90;;;;;;5068489;28;20202;-68
2022/01/03 06:17:36;;;;;;;14.63;5.50;;;9.80;99.90;;;;;;5068189;28;20270;-67
2022/01/03 06:20:03;;;;;;;28.98;8.15;;;9.80;99.90;;;;;;5067444;28;20306;-68
2022/01/03 06:22:32;;;;;;;20.63;5.00;;;9.80;99.90;;;;;;5068067;28;20489;-67
2022/01/03 06:24:59;;;;;;;19.98;5.72;;;9.80;99.90;;;;;;5068067;28;20410;-68
2022/01/03 06:27:25;;;;;;;23.02;4.30;;;9.80;99.90;;;;;;5068203;28;20184;-69
2022/01/03 06:29:52;;;;;;;21.10;4.75;;;9.80;99.90;;;;;;5067746;28;20301;-68
2022/01/03 06:32:19;;;;;;;16.30;4.43;;;9.80;99.90;;;;;;5067900;28;20215;-67
2022/01/03 06:34:46;;;;;;;15.90;3.90;;;9.90;99.90;;;;;;5068035;28;20300;-68
2022/01/03 06:37:13;;;;;;;18.52;4.47;;;9.90;99.90;;;;;;5076239;28;20193;-67
2022/01/03 06:39:42;;;;;;;12.63;3.65;;;9.90;99.90;;;;;;5067483;28;20180;-68
2022/01/03 06:42:10;;;;;;;17.02;5.88;;;9.90;99.90;;;;;;5067629;28;20208;-68
2022/01/03 06:44:36;;;;;;;16.13;3.90;;;9.90;99.90;;;;;;5067785;28;20209;-69
2022/01/03 06:47:04;;;;;;;19.05;4.70;;;9.90;99.90;;;;;;5067500;28;20233;-68
2022/01/03 06:49:31;;;;;;;18.02;5.13;;;10.00;99.90;;;;;;5066971;28;20211;-67
2022/01/03 06:51:58;;;;;;;19.75;4.00;;;9.90;99.90;;;;;;5067200;28;20279;-68
2022/01/03 06:54:25;;;;;;;17.55;3.45;;;9.90;99.90;;;;;;5067291;28;20251;-68
2022/01/03 06:56:54;;;;;;;17.80;4.47;;;9.90;99.90;;;;;;5067105;28;20188;-67
2022/01/03 06:59:21;;;;;;;14.60;4.35;;;9.90;99.90;;;;;;5067426;28;20199;-68
2022/01/03 07:01:48;;;;;;;18.77;4.72;;;10.00;99.90;;;;;;5066818;28;20202;-68
2022/01/03 07:04:15;;;;;;;12.88;4.25;;;10.00;99.90;;;;;;5067549;28;20306;-69
2022/01/03 07:06:42;;;;;;;17.48;4.40;;;10.00;99.90;;;;;;5065631;28;20180;-68
2022/01/03 07:09:08;;;;;;;22.25;6.75;;;10.00;99.90;;;;;;5066882;28;20191;-69
2022/01/03 07:11:36;;;;;;;12.55;3.95;;;10.00;99.90;;;;;;5066520;28;20215;-68
2022/01/03 07:18:56;;;;;;;11.00;3.80;;;10.00;99.90;;;;;;5067333;28;20213;-68
2022/01/03 07:19:40;;;;;;;17.60;4.25;;;10.10;99.90;;;;;;5066297;28;20195;-69
2022/01/03 07:22:09;;;;;;;10.93;3.72;;;10.10;99.90;;;;;;5066904;28;20212;-68
2022/01/03 07:24:37;;;;;;;15.93;4.63;;;10.10;99.90;;;;;;5066946;28;20242;-68
2022/01/03 07:27:06;;;;;;;14.68;4.45;;;10.10;99.90;;;;;;5067001;28;20203;-68
2022/01/03 07:29:35;;;;;;;13.60;4.70;;;10.20;99.90;;;;;;5066690;28;20262;-67
2022/01/03 07:32:01;;;;;;;19.15;5.07;;;10.20;99.90;;;;;;5066833;28;20278;-67
2022/01/03 07:34:29;;;;;;;21.27;5.95;;;10.20;99.90;;;;;;5066797;28;20219;-67
2022/01/03 07:36:56;;;;;;;17.38;4.10;;;10.20;99.90;;;;;;5066779;28;20391;-67
2022/01/03 07:39:23;;;;;;;18.95;4.18;;;10.20;99.90;;;;;;5066382;28;20191;-66
2022/01/03 07:41:50;;;;;;;19.98;5.75;;;10.20;99.90;;;;;;5066106;28;20208;-67
2022/01/03 07:44:17;;;;;;;11.95;4.03;;;10.20;99.90;;;;;;5066682;28;20204;-68
2022/01/03 07:46:46;;;;;;;17.35;3.75;;;10.20;99.90;;;;;;5066823;28;20192;-67
2022/01/03 07:49:12;;;;;;;14.82;3.88;;;10.20;99.90;;;;;;5066530;28;20199;-68
2022/01/03 07:51:40;;;;;;;15.13;3.00;;;10.10;99.90;;;;;;5066057;28;20230;-68
2022/01/03 07:54:07;;;;;;;17.75;4.50;;;10.10;99.90;;;;;;5067108;28;20192;-68
2022/01/03 07:56:35;;;;;;;17.67;4.90;;;10.10;99.90;;;;;;5067051;28;20222;-69
2022/01/03 07:59:02;;;;;;;13.77;4.15;;;10.10;99.90;;;;;;5066481;28;20199;-69
2022/01/03 08:01:29;;;;;;;11.88;4.82;;;10.10;99.90;;;;;;5065888;28;20434;-68
2022/01/03 08:03:57;;;;;;;18.52;5.18;;;10.20;99.90;;;;;;5067260;28;20184;-69
2022/01/03 08:06:24;;;;;;;11.60;3.63;;;10.20;99.90;;;;;;5070843;28;20323;-69
2022/01/03 08:08:52;;;;;;;17.27;4.47;;;10.20;99.90;;;;;;5070826;28;20263;-67
2022/01/03 08:11:19;;;;;;;25.15;5.30;;;10.30;99.90;;;;;;5069710;28;20294;-68
2022/01/03 08:13:46;;;;;;;13.40;3.95;;;10.30;99.90;;;;;;5070788;28;20197;-68
2022/01/03 08:16:14;;;;;;;15.30;4.05;;;10.30;99.90;;;;;;5070772;28;20184;-67
2022/01/03 08:18:41;;;;;;;16.70;4.00;;;10.30;99.90;;;;;;5070630;28;20184;-68
2022/01/03 08:21:10;;;;;;;17.73;4.60;;;10.30;99.90;;;;;;5069593;28;20211;-67
2022/01/03 08:23:37;;;;;;;18.17;4.82;;;10.30;99.90;;;;;;5070659;28;20216;-67
2022/01/03 08:26:04;;;;;;;11.48;4.50;;;10.30;99.90;;;;;;5070537;28;20210;-68
2022/01/03 08:28:31;;;;;;;14.27;4.18;;;10.40;99.90;;;;;;5070516;28;20207;-67
2022/01/03 08:30:59;;;;;;;10.50;3.13;;;10.40;99.90;;;;;;5069480;28;20219;-68
2022/01/03 08:33:26;;;;;;;16.48;4.88;;;10.40;99.90;;;;;;5070452;28;20196;-68
2022/01/03 08:35:53;;;;;;;10.98;4.72;;;10.40;99.90;;;;;;5070164;28;20276;-68
2022/01/03 08:38:21;;;;;;;9.10;3.90;;;10.50;99.90;;;;;;5069953;28;20195;-67
2022/01/03 08:40:48;;;;;;;21.60;4.30;;;10.60;99.90;;;;;;5068680;28;20277;-67
2022/01/03 08:43:15;;;;;;;15.05;5.78;;;10.60;99.90;;;;;;5069845;28;20188;-67
2022/01/03 08:45:42;;;;;;;24.33;7.72;;;10.50;99.90;;;;;;5069769;28;20193;-67
2022/01/03 08:48:10;;;;;;;21.55;8.15;;;10.60;99.90;;;;;;5069827;28;20253;-67
2022/01/03 08:50:37;;;;;;;19.85;5.10;;;10.50;99.90;;;;;;5069088;28;20250;-68
2022/01/03 08:53:04;;;;;;;19.65;4.20;;;10.60;99.90;;;;;;5069827;28;20393;-68
2022/01/03 08:55:33;;;;;;;25.67;4.65;;;10.50;99.90;;;;;;5069691;28;20192;-67
2022/01/03 08:58:00;;;;;;;23.10;5.30;;;10.60;99.90;;;;;;5069673;28;20189;-67
2022/01/03 09:00:27;;;;;;;14.27;4.72;;;10.60;99.90;;;;;;5069138;28;20207;-69
2022/01/03 09:02:54;;;;;;;21.08;5.15;;;10.60;99.90;;;;;;5070758;28;20342;-68
2022/01/03 09:05:21;;;;;;;20.23;4.30;;;10.70;99.90;;;;;;5069548;28;20413;-67
2022/01/03 09:07:48;;;;;;;21.95;5.45;;;10.70;99.90;;;;;;5069598;28;20269;-67
2022/01/03 09:10:15;;;;;;;18.80;4.95;;;10.70;99.90;;;;;;5068720;28;20215;-68
2022/01/03 09:12:44;;;;;;;17.67;4.90;;;10.70;99.90;;;;;;5061857;28;20217;-69
2022/01/03 09:15:11;;;;;;;18.00;6.25;;;10.70;99.90;;;;;;5068864;28;20248;-67
2022/01/03 09:17:38;;;;;;;14.02;3.95;;;10.70;99.90;;;;;;5068720;28;20226;-67
2022/01/03 09:20:06;;;;;;;16.17;4.60;;;10.70;99.90;;;;;;5063769;28;20202;-67
2022/01/03 09:22:39;;;;;;;22.20;5.95;;;10.80;99.90;;;;;;5069323;28;20191;-66
2022/01/03 09:30:37;;;;;;;17.20;5.05;;;11.10;99.90;;;;;;5068265;28;20250;-68
2022/01/03 09:33:04;;;;;;;20.10;4.55;;;11.20;99.90;;;;;;5069189;28;20222;-67
2022/01/03 09:35:32;;;;;;;18.55;5.53;;;11.20;99.90;;;;;;5068729;28;20240;-68
2022/01/03 09:37:59;;;;;;;19.38;4.85;;;11.20;99.90;;;;;;5068691;28;20375;-68
2022/01/03 09:40:26;;;;;;;19.80;5.28;;;11.10;99.90;;;;;;5068094;28;20486;-67
2022/01/03 09:42:59;;;;;;;16.85;6.57;;;11.20;99.90;;;;;;5068762;28;20186;-68
2022/01/03 09:45:30;;;;;;;23.70;8.70;;;11.20;99.90;;;;;;5067822;28;20206;-68
2022/01/03 09:47:57;;;;;;;19.80;4.47;;;11.10;99.90;;;;;;5072346;28;20275;-66
2022/01/03 09:50:24;;;;;;;19.90;5.55;;;11.10;99.90;;;;;;5067265;28;20305;-68
2022/01/03 09:52:52;;;;;;;14.48;4.55;;;11.10;99.90;;;;;;5068880;28;20213;-68
2022/01/03 09:55:21;;;;;;;15.45;4.82;;;11.00;99.90;;;;;;5068341;28;20182;-68
2022/01/03 09:57:49;;;;;;;19.08;6.00;;;11.00;99.90;;;;;;5068787;28;20197;-68
2022/01/03 10:00:22;;;;;;;11.88;3.88;;;11.10;99.90;;;;;;5067714;28;20193;-68
2022/01/03 10:02:49;;;;;;;11.98;4.07;;;11.10;99.90;;;;;;5068234;28;20256;-67
2022/01/03 10:05:16;;;;;;;13.80;5.38;;;11.50;99.90;;;;;;5068189;28;20186;-69
2022/01/03 10:07:43;;;;;;;20.50;5.38;;;12.00;99.90;;;;;;5068495;28;20250;-68
2022/01/03 10:10:12;;;;;;;17.55;5.45;;;12.20;99.90;;;;;;5067544;28;20187;-68
2022/01/03 10:12:40;;;;;;;18.13;5.32;;;12.40;99.90;;;;;;5067958;28;20251;-68
2022/01/03 10:15:09;;;;;;;18.73;5.32;;;12.40;99.90;;;;;;5068316;28;20223;-68
2022/01/03 10:17:39;;;;;;;15.15;5.10;;;11.90;99.90;;;;;;5075377;28;20218;-68
2022/01/03 10:20:10;;;;;;;14.82;4.78;;;12.20;99.90;;;;;;5067470;28;20205;-69
2022/01/03 10:22:38;;;;;;;20.13;4.60;;;12.80;99.90;;;;;;5068249;28;20179;-69
2022/01/03 10:25:12;;;;;;;19.60;7.22;;;12.30;99.90;;;;;;5068411;28;20229;-69
2022/01/03 10:27:51;;;;;;;16.50;6.28;;;11.70;99.90;;;;;;5066390;28;20390;-69
2022/01/03 10:30:38;;;;;;;19.30;6.90;;;11.30;99.90;;;;;;5067281;28;20512;-67
2022/01/03 10:33:08;;;;;;;28.55;8.13;;;11.40;99.90;;;;;;5068207;28;20193;-67
2022/01/03 10:35:38;;;;;;;13.70;4.57;;;11.40;99.90;;;;;;5067740;28;20201;-69
2022/01/03 10:38:05;;;;;;;12.98;4.65;;;11.30;99.90;;;;;;5062820;28;20213;-68
2022/01/03 10:40:32;;;;;;;19.02;6.00;;;11.20;99.90;;;;;;5067042;28;20219;-68
2022/01/03 10:43:13;;;;;;;19.52;4.97;;;11.10;99.90;;;;;;5067755;28;20248;-68
2022/01/03 10:45:41;;;;;;;16.98;5.35;;;11.00;99.90;;;;;;5067667;28;20181;-68
2022/01/03 10:48:30;;;;;;;17.35;6.50;;;10.90;99.90;;;;;;5067742;28;20212;-68
2022/01/03 10:50:57;;;;;;;17.75;5.32;;;10.90;99.90;;;;;;5054324;28;20423;-69
2022/01/03 10:53:35;;;;;;;17.83;4.15;;;11.00;99.90;;;;;;5068695;28;20211;-69
2022/01/03 10:56:24;;;;;;;17.17;6.38;;;11.10;99.90;;;;;;5072453;28;20387;-69
2022/01/03 10:58:51;;;;;;;16.45;4.57;;;11.20;99.90;;;;;;5060119;28;20188;-70
2022/01/03 11:01:22;;;;;;;14.40;5.60;;;11.30;99.90;;;;;;5066526;28;20318;-67
2022/01/03 11:03:52;;;;;;;21.63;7.38;;;11.30;99.90;;;;;;5067568;28;20212;-69
2022/01/03 11:06:46;;;;;;;23.90;6.55;;;11.40;99.90;;;;;;5068562;28;20189;-69
2022/01/03 11:12:19;;;;;;;17.90;5.75;;;11.30;99.90;;;;;;5062043;28;20274;-68
2022/01/03 11:14:46;;;;;;;16.30;4.45;;;11.50;99.90;;;;;;5074407;28;20229;-68
2022/01/03 11:17:27;;;;;;;11.82;4.82;;;11.30;99.90;;;;;;5066888;28;20195;-68
2022/01/03 11:19:59;;;;;;;18.50;4.93;;;11.30;99.90;;;;;;5064027;28;20244;-68
2022/01/03 11:22:40;;;;;;;16.38;4.93;;;11.30;99.90;;;;;;5066746;28;20383;-72
2022/01/03 11:25:08;;;;;;;20.75;5.68;;;11.10;99.90;;;;;;5066194;28;20198;-69
2022/01/03 11:27:39;;;;;;;23.40;6.13;;;11.00;99.90;;;;;;5066776;28;20406;-67
2022/01/03 11:30:09;;;;;;;16.45;5.88;;;11.00;99.90;;;;;;5065915;28;20260;-68
2022/01/03 11:32:38;;;;;;;11.75;5.00;;;11.00;99.90;;;;;;5069135;28;20215;-69
2022/01/03 11:35:09;;;;;;;14.95;6.13;;;11.00;99.90;;;;;;5071666;28;20202;-68
2022/01/03 11:37:40;;;;;;;21.35;4.75;;;11.00;99.90;;;;;;5066694;28;20220;-69
2022/01/03 11:40:11;;;;;;;18.73;5.07;;;11.00;99.90;;;;;;5072460;28;20233;-67
2022/01/03 11:42:39;;;;;;;17.08;5.25;;;11.10;99.90;;;;;;5066402;28;20198;-67
2022/01/03 11:45:07;;;;;;;18.65;5.25;;;11.10;99.90;;;;;;5065739;28;20289;-67
2022/01/03 11:47:34;;;;;;;20.15;4.30;;;11.10;99.90;;;;;;5065516;28;20233;-69
2022/01/03 11:50:01;;;;;;;14.43;3.47;;;11.20;99.90;;;;;;5066165;28;20196;-66
2022/01/03 11:52:31;;;;;;;16.05;4.60;;;11.30;99.90;;;;;;5066347;28;20369;-68
2022/01/03 11:54:58;;;;;;;10.50;3.92;;;11.30;99.90;;;;;;5066441;28;20185;-67
2022/01/03 11:57:40;;;;;;;22.08;5.50;;;11.30;99.90;;;;;;5066308;28;20198;-68
2022/01/03 12:05:49;;;;;;;13.23;4.53;;;11.60;99.90;;;;;;5066274;28;20181;-68
2022/01/03 12:08:25;;;;;;;15.65;4.40;;;11.70;99.90;;;;;;5066366;28;20191;-68
2022/01/03 12:10:53;;;;;;;12.65;5.15;;;11.80;99.90;;;;;;5065345;28;20554;-67
2022/01/03 12:13:21;;;;;;;8.52;3.08;;;11.80;99.90;;;;;;5066142;28;20384;-67
2022/01/03 12:16:04;;;;;;;12.35;5.30;;;11.80;99.90;;;;;;5066437;28;20181;-67
2022/01/03 12:18:32;;;;;;;18.48;4.35;;;11.70;99.90;;;;;;5064653;28;20198;-68
2022/01/03 12:20:59;;;;;;;9.45;3.47;;;11.80;99.90;;;;;;5065289;28;20502;-67
2022/01/03 12:23:41;;;;;;;18.65;5.47;;;11.60;99.90;;;;;;5065925;28;20364;-68
2022/01/03 12:26:10;;;;;;;22.60;3.97;;;11.70;99.90;;;;;;5070045;28;20216;-68
2022/01/03 12:29:06;;;;;;;9.70;4.28;;;11.70;99.90;;;;;;5065977;28;20190;-69
2022/01/03 12:32:06;;;;;;;11.10;4.03;;;11.70;99.90;;;;;;5065179;28;20252;-68
2022/01/03 12:34:34;;;;;;;13.10;3.95;;;11.70;99.90;;;;;;5065725;28;20186;-68
2022/01/03 12:37:18;;;;;;;20.95;4.25;;;11.60;99.90;;;;;;5066031;28;20210;-67
2022/01/03 12:40:13;;;;;;;20.88;5.18;;;11.80;99.90;;;;;;5057535;28;20393;-68
2022/01/03 12:42:54;;;;;;;10.10;4.63;;;11.80;99.90;;;;;;5058020;28;20197;-69
2022/01/03 12:45:56;;;;;;;18.92;3.90;;;11.90;99.90;;;;;;5065943;28;20277;-68
2022/01/03 12:48:24;;;;;;;11.88;3.63;;;11.70;99.90;;;;;;5062633;28;20345;-69
2022/01/03 12:51:22;;;;;;;27.10;7.47;;;11.70;99.90;;;;;;5067239;28;20270;-68
2022/01/03 12:53:53;;;;;;;13.02;3.80;;;11.70;99.90;;;;;;5008533;28;20270;-68
2022/01/03 12:56:28;;;;;;;19.83;4.10;;;11.70;99.90;;;;;;5057571;28;20193;-69
2022/01/03 12:58:58;;;;;;;15.60;4.22;;;11.50;99.90;;;;;;5068864;28;20344;-68
2022/01/03 13:01:30;;;;;;;19.23;4.60;;;11.40;99.90;;;;;;5068957;28;20208;-69
2022/01/03 13:04:33;;;;;;;14.57;4.22;;;11.50;99.90;;;;;;5069602;28;20257;-68
2022/01/03 13:07:04;;;;;;;13.95;4.45;;;11.50;99.90;;;;;;5061920;28;20254;-68
2022/01/03 13:09:31;;;;;;;12.07;5.70;;;11.50;99.90;;;;;;5068549;28;20186;-69
2022/01/03 13:12:05;;;;;;;22.13;5.38;;;11.50;99.90;;;;;;5069199;28;20346;-69
2022/01/03 13:14:32;;;;;;;15.55;4.43;;;11.50;99.90;;;;;;5069081;28;20193;-68
2022/01/03 13:17:00;;;;;;;13.32;4.13;;;11.50;99.90;;;;;;5069296;28;20471;-68